createdAt,value
2018-09-10T00:00:55.254Z,77.05
2018-09-10T00:03:25.614Z,78.12
2018-09-10T00:05:54.891Z,77.45
2018-09-10T00:08:24.249Z,77.49
2018-09-10T00:10:54.128Z,77.84
2018-09-10T00:13:23.471Z,77.55
2018-09-10T00:15:52.799Z,78.21
2018-09-10T00:18:22.243Z,78.31
2018-09-10T00:20:51.969Z,78.15
2018-09-10T00:23:21.303Z,77.92
2018-09-10T00:25:51.162Z,78.40
2018-09-10T00:28:20.481Z,77.90
2018-09-10T00:30:49.836Z,79.08
2018-09-10T00:33:19.180Z,79.02
2018-09-10T00:35:49.159Z,78.00
2018-09-10T00:38:18.484Z,78.21
2018-09-10T00:40:47.791Z,78.76
2018-09-10T00:43:17.131Z,77.66
2018-09-10T00:45:46.948Z,79.12
2018-09-10T00:48:16.287Z,79.31
2018-09-10T00:50:45.944Z,78.59
2018-09-10T00:53:15.248Z,79.33
2018-09-10T00:55:45.195Z,79.75
2018-09-10T00:58:14.536Z,79.34
2018-09-10T01:00:44.275Z,79.66
2018-09-10T01:03:15.076Z,79.13
2018-09-10T01:05:44.452Z,78.38
2018-09-10T01:08:13.806Z,80.19
2018-09-10T01:11:13.888Z,79.93
2018-09-10T01:13:43.235Z,80.09
2018-09-10T01:16:13.035Z,79.69
2018-09-10T01:18:42.343Z,79.59
2018-09-10T01:21:11.866Z,79.61
2018-09-10T01:23:41.216Z,80.04
2018-09-10T01:26:11.120Z,80.41
2018-09-10T01:28:40.471Z,80.11
2018-09-10T01:31:09.763Z,80.64
2018-09-10T01:33:44.123Z,79.99
2018-09-10T01:36:13.500Z,81.03
2018-09-10T01:38:42.812Z,80.10
2018-09-10T01:41:12.689Z,80.52
2018-09-10T01:43:42.036Z,80.61
2018-09-10T01:46:11.868Z,80.82
2018-09-10T01:48:41.226Z,80.70
2018-09-10T01:51:11.013Z,80.97
2018-09-10T01:53:40.443Z,81.17
2018-09-10T01:56:09.789Z,81.92
2018-09-10T01:58:39.167Z,81.61
2018-09-10T02:01:08.975Z,81.12
2018-09-10T02:03:38.277Z,80.67
2018-09-10T02:06:07.918Z,81.71
2018-09-10T02:08:37.238Z,80.37
2018-09-10T02:11:07.044Z,81.51
2018-09-10T02:13:36.395Z,81.63
2018-09-10T02:16:09.027Z,81.10
2018-09-10T02:18:39.295Z,81.50
2018-09-10T02:21:08.620Z,81.29
2018-09-10T02:23:38.445Z,81.71
2018-09-10T02:26:07.940Z,81.74
2018-09-10T02:28:37.284Z,81.50
2018-09-10T02:31:06.752Z,81.81
2018-09-10T02:33:36.092Z,82.48
2018-09-10T02:36:05.793Z,81.63
2018-09-10T02:38:35.163Z,81.68
2018-09-10T02:41:04.511Z,81.36
2018-09-10T02:43:33.998Z,82.00
2018-09-10T02:46:03.817Z,81.90
2018-09-10T02:48:33.097Z,82.10
2018-09-10T02:51:02.416Z,81.94
2018-09-10T02:53:31.738Z,82.57
2018-09-10T02:56:01.528Z,81.66
2018-09-10T02:58:30.886Z,82.66
2018-09-10T03:01:00.251Z,81.89
2018-09-10T03:03:29.622Z,81.82
2018-09-10T03:05:59.447Z,81.70
2018-09-10T03:08:28.797Z,82.36
2018-09-10T03:10:58.135Z,81.54
2018-09-10T03:13:27.520Z,81.70
2018-09-10T03:15:57.107Z,82.24
2018-09-10T03:18:26.438Z,81.57
2018-09-10T03:20:58.838Z,81.63
2018-09-10T03:23:28.160Z,82.77
2018-09-10T03:25:57.519Z,82.85
2018-09-10T03:28:27.951Z,83.44
2018-09-10T03:30:58.522Z,82.79
2018-09-10T03:33:27.932Z,83.22
2018-09-10T03:35:57.307Z,83.17
2018-09-10T03:38:27.944Z,83.14
2018-09-10T03:40:57.248Z,83.24
2018-09-10T03:43:26.868Z,82.68
2018-09-10T03:45:56.189Z,83.86
2018-09-10T03:48:25.888Z,82.97
2018-09-10T03:50:55.192Z,83.95
2018-09-10T03:53:24.524Z,83.81
2018-09-10T03:55:53.856Z,83.31
2018-09-10T03:58:23.227Z,83.46
2018-09-10T04:00:52.529Z,82.96
2018-09-10T04:03:21.811Z,83.59
2018-09-10T04:05:51.406Z,83.62
2018-09-10T04:08:20.772Z,83.78
2018-09-10T04:10:50.093Z,84.63
2018-09-10T04:13:19.417Z,84.32
2018-09-10T04:15:49.440Z,84.14
2018-09-10T04:18:19.533Z,83.88
2018-09-10T04:20:49.218Z,84.11
2018-09-10T04:23:18.579Z,83.66
2018-09-10T04:25:48.027Z,83.36
2018-09-10T04:28:17.393Z,84.41
2018-09-10T04:30:47.096Z,84.16
2018-09-10T04:33:16.379Z,85.14
2018-09-10T04:35:46.416Z,85.66
2018-09-10T04:38:16.032Z,84.94
2018-09-10T04:40:46.828Z,85.21
2018-09-10T04:43:16.182Z,85.18
2018-09-10T04:45:46.092Z,85.70
2018-09-10T04:48:16.078Z,85.23
2018-09-10T04:50:45.368Z,84.82
2018-09-10T04:53:14.715Z,85.91
2018-09-10T04:55:44.112Z,85.06
2018-09-10T04:58:13.963Z,84.58
2018-09-10T05:00:43.336Z,84.56
2018-09-10T05:03:12.674Z,85.06
2018-09-10T05:05:42.654Z,85.34
2018-09-10T05:08:11.999Z,84.57
2018-09-10T05:10:41.369Z,84.70
2018-09-10T05:13:10.701Z,85.50
2018-09-10T05:15:40.495Z,85.26
2018-09-10T05:18:09.840Z,84.60
2018-09-10T05:20:39.361Z,85.65
2018-09-10T05:23:11.119Z,85.26
2018-09-10T05:25:41.792Z,86.01
2018-09-10T05:30:49.827Z,85.90
2018-09-10T05:33:19.201Z,86.14
2018-09-10T05:35:48.512Z,85.49
2018-09-10T05:38:18.290Z,84.97
2018-09-10T05:40:47.916Z,85.00
2018-09-10T05:43:18.987Z,84.36
2018-09-10T05:45:49.604Z,83.51
2018-09-10T05:48:19.346Z,83.99
2018-09-10T05:50:49.693Z,83.37
2018-09-10T05:53:19.807Z,82.58
2018-09-10T05:55:49.416Z,82.49
2018-09-10T05:58:18.840Z,81.86
2018-09-10T06:00:48.222Z,82.57
2018-09-10T06:03:19.681Z,81.57
2018-09-10T06:05:49.021Z,82.44
2018-09-10T06:11:55.812Z,81.54
2018-09-10T06:14:25.497Z,81.98
2018-09-10T06:16:55.262Z,81.98
2018-09-10T06:19:24.636Z,82.44
2018-09-10T06:21:54.253Z,82.54
2018-09-10T06:24:23.977Z,82.61
2018-09-10T06:26:53.347Z,83.97
2018-09-10T06:29:22.704Z,83.83
2018-09-10T06:31:52.710Z,83.09
2018-09-10T06:34:22.511Z,83.47
2018-09-10T06:36:51.877Z,82.83
2018-09-10T06:39:21.304Z,82.58
2018-09-10T06:41:51.673Z,82.69
2018-09-10T06:44:22.986Z,82.59
2018-09-10T06:46:52.315Z,81.44
2018-09-10T06:49:22.004Z,80.77
2018-09-10T06:51:51.355Z,80.77
2018-09-10T06:54:21.536Z,80.68
2018-09-10T06:56:50.847Z,79.38
2018-09-10T06:59:20.603Z,76.11
2018-09-10T07:01:49.937Z,76.69
2018-09-10T07:04:19.246Z,77.21
2018-09-10T07:06:48.640Z,74.57
2018-09-10T07:09:18.015Z,75.12
2018-09-10T07:11:47.376Z,74.99
2018-09-10T07:14:16.724Z,75.19
2018-09-10T07:16:46.666Z,70.65
2018-09-10T07:19:16.100Z,65.97
2018-09-10T07:21:45.451Z,67.25
2018-09-10T07:24:15.431Z,62.71
2018-09-10T07:26:44.915Z,59.38
2018-09-10T07:29:14.303Z,57.90
2018-09-10T07:31:44.057Z,57.67
2018-09-10T07:34:13.816Z,55.62
2018-09-10T07:36:43.603Z,58.01
2018-09-10T07:39:13.222Z,57.01
2018-09-10T07:41:43.539Z,57.02
2018-09-10T07:44:16.489Z,56.35
2018-09-10T07:46:46.995Z,57.01
2018-09-10T07:49:17.588Z,55.17
2018-09-10T07:51:46.970Z,56.74
2018-09-10T07:54:16.364Z,55.17
2018-09-10T07:59:22.455Z,55.41
2018-09-10T08:01:52.158Z,56.52
2018-09-10T08:04:21.480Z,55.67
2018-09-10T08:06:51.606Z,55.38
2018-09-10T08:09:21.779Z,55.58
2018-09-10T08:11:52.693Z,54.48
2018-09-10T08:14:22.210Z,53.49
2018-09-10T08:16:51.567Z,53.74
2018-09-10T08:19:21.860Z,53.86
2018-09-10T08:21:51.212Z,50.84
2018-09-10T08:24:21.276Z,52.18
2018-09-10T08:26:50.596Z,49.65
2018-09-10T08:29:20.895Z,48.87
2018-09-10T08:31:51.361Z,48.83
2018-09-10T08:34:21.239Z,48.56
2018-09-10T08:36:51.336Z,48.50
2018-09-10T08:39:20.692Z,48.65
2018-09-10T08:41:51.091Z,48.13
2018-09-10T08:44:22.006Z,46.61
2018-09-10T08:46:51.523Z,46.95
2018-09-10T08:49:21.272Z,47.75
2018-09-10T08:52:06.114Z,48.65
2018-09-10T08:54:36.390Z,46.12
2018-09-10T08:57:06.427Z,45.85
2018-09-10T08:59:35.745Z,46.62
2018-09-10T09:02:06.762Z,44.36
2018-09-10T09:04:36.370Z,43.40
2018-09-10T09:07:06.112Z,43.15
2018-09-10T09:09:35.405Z,43.17
2018-09-10T09:12:04.776Z,43.12
2018-09-10T09:14:34.529Z,44.54
2018-09-10T09:17:05.915Z,41.50
2018-09-10T09:19:35.822Z,42.37
2018-09-10T09:22:09.971Z,42.45
2018-09-10T09:24:40.230Z,43.07
2018-09-10T09:27:09.549Z,41.63
2018-09-10T09:29:40.333Z,43.38
2018-09-10T09:32:11.020Z,42.89
2018-09-10T09:34:45.413Z,42.85
2018-09-10T09:37:20.316Z,43.39
2018-09-10T09:39:56.262Z,39.67
2018-09-10T09:42:32.406Z,39.56
2018-09-10T09:45:07.126Z,40.64
2018-09-10T09:50:41.376Z,41.38
2018-09-10T09:53:10.675Z,41.27
2018-09-10T09:55:40.069Z,41.22
2018-09-10T09:58:09.401Z,39.63
2018-09-10T10:00:43.932Z,39.49
2018-09-10T10:03:17.536Z,39.95
2018-09-10T10:05:47.927Z,36.94
2018-09-10T10:08:19.018Z,39.05
2018-09-10T10:10:48.340Z,37.77
2018-09-10T10:13:17.670Z,38.62
2018-09-10T10:15:48.664Z,38.84
2018-09-10T10:18:18.399Z,41.03
2018-09-10T10:20:50.323Z,38.40
2018-09-10T10:23:20.283Z,38.02
2018-09-10T10:25:51.218Z,37.33
2018-09-10T10:28:23.036Z,38.83
2018-09-10T10:30:53.982Z,38.32
2018-09-10T10:33:23.764Z,37.35
2018-09-10T10:35:54.096Z,39.06
2018-09-10T10:38:23.935Z,38.64
2018-09-10T10:40:54.547Z,37.04
2018-09-10T10:43:23.830Z,36.22
2018-09-10T10:45:53.911Z,36.36
2018-09-10T10:48:23.314Z,35.24
2018-09-10T10:50:52.987Z,35.14
2018-09-10T10:53:22.388Z,35.74
2018-09-10T10:55:51.675Z,34.33
2018-09-10T10:58:21.336Z,35.50
2018-09-10T11:00:50.663Z,35.68
2018-09-10T11:03:20.687Z,36.38
2018-09-10T11:05:49.956Z,35.98
2018-09-10T11:08:19.308Z,36.24
2018-09-10T11:10:49.707Z,36.17
2018-09-10T11:13:19.483Z,34.94
2018-09-10T11:15:50.406Z,35.83
2018-09-10T11:18:19.797Z,37.03
2018-09-10T11:20:49.932Z,36.78
2018-09-10T11:23:21.043Z,35.30
2018-09-10T11:25:50.358Z,35.60
2018-09-10T11:28:20.044Z,34.19
2018-09-10T11:30:54.913Z,34.33
2018-09-10T11:33:30.362Z,33.23
2018-09-10T11:36:14.427Z,33.86
2018-09-10T11:38:44.276Z,34.09
2018-09-10T11:41:13.658Z,33.96
2018-09-10T11:43:46.118Z,33.49
2018-09-10T11:46:15.486Z,33.96
2018-09-10T11:48:49.172Z,34.27
2018-09-10T11:51:18.527Z,34.09
2018-09-10T11:53:48.157Z,34.11
2018-09-10T11:56:19.414Z,32.50
2018-09-10T11:58:52.916Z,32.47
2018-09-10T12:01:23.337Z,32.64
2018-09-10T12:03:54.879Z,33.79
2018-09-10T12:06:25.041Z,31.80
2018-09-10T12:08:56.268Z,33.29
2018-09-10T12:11:28.327Z,33.23
2018-09-10T12:13:58.266Z,33.34
2018-09-10T12:16:30.259Z,32.77
2018-09-10T12:18:59.714Z,33.28
2018-09-10T12:21:29.333Z,32.43
2018-09-10T12:23:59.671Z,32.08
2018-09-10T12:26:31.469Z,32.11
2018-09-10T12:29:02.983Z,32.74
2018-09-10T12:31:32.272Z,32.23
2018-09-10T12:34:02.295Z,32.09
2018-09-10T12:36:31.890Z,31.34
2018-09-10T12:39:02.402Z,31.80
2018-09-10T12:41:31.763Z,33.07
2018-09-10T12:44:02.254Z,32.67
2018-09-10T12:46:31.677Z,33.50
2018-09-10T12:49:01.439Z,32.95
2018-09-10T12:51:32.061Z,32.70
2018-09-10T12:54:02.403Z,33.10
2018-09-10T12:56:31.781Z,33.21
2018-09-10T12:59:02.615Z,33.26
2018-09-10T13:01:32.056Z,32.54
2018-09-10T13:04:01.416Z,33.70
2018-09-10T13:06:31.603Z,32.89
2018-09-10T13:09:01.024Z,33.50
2018-09-10T13:11:30.431Z,33.68
2018-09-10T13:14:01.551Z,34.27
2018-09-10T13:16:31.075Z,34.52
2018-09-10T13:19:00.456Z,34.53
2018-09-10T13:21:29.832Z,35.62
2018-09-10T13:24:02.348Z,34.42
2018-09-10T13:26:31.753Z,33.51
2018-09-10T13:29:01.135Z,34.59
2018-09-10T13:31:30.474Z,32.93
2018-09-10T13:34:01.066Z,32.63
2018-09-10T13:36:31.575Z,34.06
2018-09-10T13:39:10.947Z,34.22
2018-09-10T13:41:40.464Z,34.24
2018-09-10T13:44:09.748Z,33.04
2018-09-10T13:46:39.627Z,32.30
2018-09-10T13:49:14.296Z,32.48
2018-09-10T13:51:45.708Z,31.96
2018-09-10T13:54:15.463Z,32.04
2018-09-10T13:59:22.641Z,32.53
2018-09-10T14:02:21.557Z,32.38
2018-09-10T14:05:18.549Z,33.71
2018-09-10T14:07:53.246Z,33.27
2018-09-10T14:10:23.214Z,32.39
2018-09-10T14:12:54.219Z,33.02
2018-09-10T14:15:31.446Z,32.90
2018-09-10T14:18:01.605Z,33.70
2018-09-10T14:20:32.908Z,34.49
2018-09-10T14:23:02.646Z,33.74
2018-09-10T14:25:32.737Z,33.07
2018-09-10T14:28:03.305Z,34.08
2018-09-10T14:30:32.985Z,33.94
2018-09-10T14:33:03.310Z,33.48
2018-09-10T14:35:33.810Z,33.69
2018-09-10T14:38:06.130Z,32.56
2018-09-10T14:40:36.390Z,32.92
2018-09-10T14:43:05.821Z,34.11
2018-09-10T14:45:37.279Z,34.44
2018-09-10T14:48:07.467Z,33.39
2018-09-10T14:50:43.544Z,33.58
2018-09-10T14:53:20.082Z,33.58
2018-09-10T14:55:51.369Z,33.82
2018-09-10T14:58:20.737Z,33.98
2018-09-10T15:00:53.599Z,33.14
2018-09-10T15:03:24.775Z,33.30
2018-09-10T15:05:55.143Z,32.49
2018-09-10T15:08:25.330Z,32.72
2018-09-10T15:10:56.335Z,32.26
2018-09-10T15:13:26.019Z,32.40
2018-09-10T15:15:58.287Z,33.57
2018-09-10T15:18:29.394Z,33.80
2018-09-10T15:20:59.872Z,33.70
2018-09-10T15:23:29.270Z,33.16
2018-09-10T15:26:02.130Z,34.76
2018-09-10T15:28:32.435Z,34.65
2018-09-10T15:31:03.984Z,33.89
2018-09-10T15:33:33.958Z,35.20
2018-09-10T15:36:07.146Z,35.36
2018-09-10T15:38:37.469Z,35.40
2018-09-10T15:41:08.006Z,35.79
2018-09-10T15:43:37.350Z,36.43
2018-09-10T15:46:06.679Z,35.73
2018-09-10T15:48:36.262Z,35.63
2018-09-10T15:51:06.383Z,36.60
2018-09-10T15:53:36.503Z,37.46
2018-09-10T15:56:05.947Z,36.58
2018-09-10T15:58:36.538Z,36.83
2018-09-10T16:01:06.952Z,37.08
2018-09-10T16:03:36.498Z,37.57
2018-09-10T16:06:08.417Z,36.81
2018-09-10T16:08:38.057Z,38.25
2018-09-10T16:11:07.947Z,37.87
2018-09-10T16:13:38.703Z,39.07
2018-09-10T16:16:08.350Z,39.21
2018-09-10T16:18:39.475Z,38.85
2018-09-10T16:21:13.099Z,38.88
2018-09-10T16:23:44.891Z,39.99
2018-09-10T16:26:15.549Z,38.33
2018-09-10T16:28:47.090Z,39.05
2018-09-10T16:31:20.906Z,39.32
2018-09-10T16:33:52.527Z,39.94
2018-09-10T16:36:22.473Z,39.26
2018-09-10T16:39:13.950Z,40.43
2018-09-10T16:41:46.799Z,39.33
2018-09-10T16:44:17.487Z,39.40
2018-09-10T16:46:47.336Z,39.87
2018-09-10T16:49:17.300Z,40.65
2018-09-10T16:51:49.835Z,40.69
2018-09-10T16:54:27.462Z,40.85
2018-09-10T16:56:56.827Z,41.11
2018-09-10T16:59:27.031Z,42.38
2018-09-10T17:02:08.666Z,42.33
2018-09-10T17:04:39.320Z,43.88
2018-09-10T17:07:09.484Z,43.64
2018-09-10T17:09:39.983Z,44.62
2018-09-10T17:12:13.647Z,44.41
2018-09-10T17:14:50.012Z,45.25
2018-09-10T17:17:20.574Z,45.96
2018-09-10T17:19:53.093Z,45.32
2018-09-10T17:22:22.810Z,46.68
2018-09-10T17:24:55.627Z,45.58
2018-09-10T17:27:26.369Z,45.25
2018-09-10T17:29:56.235Z,47.00
2018-09-10T17:32:26.230Z,46.19
2018-09-10T17:34:55.862Z,47.81
2018-09-10T17:37:25.824Z,47.39
2018-09-10T17:39:56.100Z,48.07
2018-09-10T17:42:26.482Z,47.19
2018-09-10T17:44:56.225Z,48.90
2018-09-10T17:47:27.311Z,48.02
2018-09-10T17:49:57.756Z,48.54
2018-09-10T17:52:27.933Z,48.40
2018-09-10T17:54:59.285Z,49.65
2018-09-10T17:57:29.421Z,49.57
2018-09-10T17:59:59.150Z,51.07
2018-09-10T18:02:29.683Z,50.81
2018-09-10T18:05:02.282Z,50.04
2018-09-10T18:07:32.735Z,50.62
2018-09-10T18:12:47.507Z,50.84
2018-09-10T18:15:20.087Z,51.13
2018-09-10T18:17:52.049Z,50.15
2018-09-10T18:20:26.551Z,51.58
2018-09-10T18:22:58.830Z,51.22
2018-09-10T18:28:17.117Z,52.82
2018-09-10T18:30:49.727Z,52.70
2018-09-10T18:33:22.684Z,52.49
2018-09-10T18:35:56.967Z,52.27
2018-09-10T18:38:27.551Z,52.13
2018-09-10T18:40:57.027Z,52.96
2018-09-10T18:43:31.961Z,52.01
2018-09-10T18:46:05.347Z,52.96
2018-09-10T18:48:36.971Z,53.01
2018-09-10T18:51:06.806Z,53.16
2018-09-10T18:53:38.873Z,53.44
2018-09-10T18:56:10.370Z,53.97
2018-09-10T18:58:42.753Z,53.78
2018-09-10T19:01:16.892Z,53.26
2018-09-10T19:03:51.380Z,53.37
2018-09-10T19:06:23.805Z,53.01
2018-09-10T19:08:56.939Z,52.49
2018-09-10T19:11:31.898Z,54.66
2018-09-10T19:14:03.494Z,53.92
2018-09-10T19:16:34.481Z,53.77
2018-09-10T19:19:06.905Z,53.59
2018-09-10T19:21:41.856Z,53.71
2018-09-10T19:24:13.349Z,54.66
2018-09-10T19:26:49.905Z,53.77
2018-09-10T19:29:19.387Z,54.14
2018-09-10T19:31:49.660Z,54.80
2018-09-10T19:34:20.272Z,55.40
2018-09-10T19:36:50.219Z,54.67
2018-09-10T19:39:22.741Z,55.39
2018-09-10T19:41:53.708Z,54.88
2018-09-10T19:44:27.279Z,55.44
2018-09-10T19:46:59.030Z,55.28
2018-09-10T19:49:30.862Z,55.98
2018-09-10T19:52:01.452Z,55.36
2018-09-10T19:54:34.379Z,55.49
2018-09-10T19:57:07.775Z,54.58
2018-09-10T19:59:39.133Z,55.99
2018-09-10T20:02:14.404Z,55.65
2018-09-10T20:04:43.902Z,53.95
2018-09-10T20:07:19.686Z,54.15
2018-09-10T20:09:49.740Z,53.62
2018-09-10T20:12:19.092Z,54.27
2018-09-10T20:14:49.199Z,52.94
2018-09-10T20:17:21.488Z,54.00
2018-09-10T20:19:52.602Z,54.00
2018-09-10T20:24:57.304Z,53.20
2018-09-10T20:27:29.788Z,54.81
2018-09-10T20:30:00.271Z,54.04
2018-09-10T20:32:29.631Z,55.06
2018-09-10T20:35:01.394Z,54.73
2018-09-10T20:37:32.316Z,54.00
2018-09-10T20:40:02.477Z,53.96
2018-09-10T20:42:38.137Z,54.40
2018-09-10T20:45:09.355Z,54.99
2018-09-10T20:50:14.517Z,53.44
2018-09-10T20:52:43.832Z,52.23
2018-09-10T20:55:13.977Z,53.45
2018-09-10T20:57:43.651Z,53.56
2018-09-10T21:00:13.371Z,54.46
2018-09-10T21:02:45.358Z,53.04
2018-09-10T21:05:16.507Z,54.75
2018-09-10T21:07:49.396Z,54.89
2018-09-10T21:10:19.412Z,54.28
2018-09-10T21:12:49.614Z,54.80
2018-09-10T21:15:22.524Z,54.17
2018-09-10T21:17:52.180Z,53.80
2018-09-10T21:20:22.929Z,54.18
2018-09-10T21:22:55.401Z,55.10
2018-09-10T21:25:24.726Z,54.23
2018-09-10T21:27:55.386Z,53.33
2018-09-10T21:30:25.424Z,52.75
2018-09-10T21:32:55.487Z,52.46
2018-09-10T21:35:25.427Z,51.33
2018-09-10T21:37:58.010Z,51.04
2018-09-10T21:40:28.007Z,50.84
2018-09-10T21:42:57.982Z,49.55
2018-09-10T21:45:28.770Z,49.94
2018-09-10T21:47:59.227Z,50.52
2018-09-10T21:50:28.555Z,51.03
2018-09-10T21:52:59.780Z,50.60
2018-09-10T21:55:32.310Z,49.42
2018-09-10T21:58:02.651Z,50.08
2018-09-10T22:00:32.895Z,49.47
2018-09-10T22:03:02.750Z,50.66
2018-09-10T22:05:32.725Z,51.66
2018-09-10T22:08:02.084Z,51.95
2018-09-10T22:10:31.520Z,52.61
2018-09-10T22:13:01.247Z,53.08
2018-09-10T22:15:30.565Z,53.48
2018-09-10T22:18:02.519Z,53.83
2018-09-10T22:20:32.014Z,53.66
2018-09-10T22:23:03.930Z,53.59
2018-09-10T22:25:33.818Z,54.50
2018-09-10T22:28:03.635Z,55.49
2018-09-10T22:30:36.368Z,55.66
2018-09-10T22:33:07.358Z,55.81
2018-09-10T22:35:37.591Z,55.51
2018-09-10T22:38:06.978Z,56.61
2018-09-10T22:40:36.356Z,57.65
2018-09-10T22:43:06.250Z,55.52
2018-09-10T22:45:37.494Z,56.56
2018-09-10T22:48:07.484Z,55.57
2018-09-10T22:50:36.876Z,56.99
2018-09-10T22:53:06.961Z,56.90
2018-09-10T22:55:38.254Z,56.12
2018-09-10T22:58:10.331Z,56.37
2018-09-10T23:00:41.980Z,56.98
2018-09-10T23:03:14.433Z,57.72
2018-09-10T23:05:48.901Z,57.26
2018-09-10T23:08:24.466Z,57.77
2018-09-10T23:11:01.584Z,57.62
2018-09-10T23:13:39.059Z,58.56
2018-09-10T23:16:10.714Z,59.54
2018-09-10T23:18:45.330Z,58.66
2018-09-10T23:21:21.371Z,59.87
2018-09-10T23:23:53.436Z,58.60
2018-09-10T23:26:26.541Z,58.91
2018-09-10T23:28:57.691Z,58.61
2018-09-10T23:31:31.717Z,58.70
2018-09-10T23:34:03.460Z,59.06
2018-09-10T23:36:35.951Z,58.94
2018-09-10T23:39:12.775Z,59.11
2018-09-10T23:41:48.535Z,59.49
2018-09-10T23:44:18.035Z,59.85
2018-09-10T23:46:49.252Z,60.05
2018-09-10T23:49:20.280Z,59.91
2018-09-10T23:51:52.267Z,60.69
2018-09-10T23:54:22.927Z,61.45
2018-09-10T23:56:53.315Z,60.35
2018-09-10T23:59:25.310Z,61.87
